Doddington, United Kingdom
Current Conditions -  °F | °C
As of 10:58 AM on Friday 19 Dec 2014 (Local Time) from EGUN Reporting Station
Clear Clear  
Wind Chill:   Ceiling: Unl
Heat Index:   Visibility: 6mi
Dew Point:   Wind: 18mph
Humidity: 75%   Direction: 260°W
Pressure: 29.9"   Gusts: 23mph
Location:  52.5°N, 0.06°E
Report Text: EGUN 191058Z AUTO 26016G20KT 9999 CLR 07/03 A2990 RMK AO2 SLP128 T00720030 $
Loading
Personal Weather Stations






























Interactive Weather Map New forecast layout! Learn more

10-Day Weather Forecast

Advertisements
Track Severe Weather on mobile